sensor_id;sensor_type;location;lat;lon;timestamp;pressure;altitude;pressure_sealevel;temperature;humidity
40872;BME280;26591;43.264;26.940;2023-06-14T00:01:03;98661.25;;;18.85;65.58
40872;BME280;26591;43.264;26.940;2023-06-14T00:03:31;98661.25;;;18.85;65.95
40872;BME280;26591;43.264;26.940;2023-06-14T00:05:57;98659.44;;;18.97;65.60
40872;BME280;26591;43.264;26.940;2023-06-14T00:08:22;98655.88;;;18.73;65.82
40872;BME280;26591;43.264;26.940;2023-06-14T00:10:49;98667.16;;;18.75;66.53
40872;BME280;26591;43.264;26.940;2023-06-14T00:13:15;98661.75;;;18.94;65.98
40872;BME280;26591;43.264;26.940;2023-06-14T00:15:50;98657.03;;;19.19;65.59
40872;BME280;26591;43.264;26.940;2023-06-14T00:18:20;98663.75;;;18.98;65.70
40872;BME280;26591;43.264;26.940;2023-06-14T00:20:50;98650.06;;;18.88;65.56
40872;BME280;26591;43.264;26.940;2023-06-14T00:23:16;98647.94;;;18.78;66.22
40872;BME280;26591;43.264;26.940;2023-06-14T00:25:42;98648.78;;;18.48;66.53
40872;BME280;26591;43.264;26.940;2023-06-14T00:28:07;98653.16;;;18.30;67.19
40872;BME280;26591;43.264;26.940;2023-06-14T00:30:32;98649.09;;;18.70;67.18
40872;BME280;26591;43.264;26.940;2023-06-14T00:32:58;98649.28;;;18.87;66.57
40872;BME280;26591;43.264;26.940;2023-06-14T00:35:24;98643.50;;;19.02;66.41
40872;BME280;26591;43.264;26.940;2023-06-14T00:37:50;98637.59;;;19.24;65.50
40872;BME280;26591;43.264;26.940;2023-06-14T00:40:16;98640.13;;;18.95;65.45
40872;BME280;26591;43.264;26.940;2023-06-14T00:42:41;98636.19;;;18.67;66.81
40872;BME280;26591;43.264;26.940;2023-06-14T00:45:07;98633.75;;;18.78;66.56
40872;BME280;26591;43.264;26.940;2023-06-14T00:47:35;98640.25;;;19.12;65.67
40872;BME280;26591;43.264;26.940;2023-06-14T00:50:03;98631.03;;;18.96;66.20
40872;BME280;26591;43.264;26.940;2023-06-14T00:52:32;98635.09;;;18.68;65.95
40872;BME280;26591;43.264;26.940;2023-06-14T00:54:57;98628.50;;;18.71;66.63
40872;BME280;26591;43.264;26.940;2023-06-14T00:57:23;98630.63;;;18.81;66.55
40872;BME280;26591;43.264;26.940;2023-06-14T00:59:49;98615.50;;;18.56;66.52
40872;BME280;26591;43.264;26.940;2023-06-14T01:02:15;98622.00;;;18.48;67.70
40872;BME280;26591;43.264;26.940;2023-06-14T01:04:43;98612.41;;;18.83;67.21
40872;BME280;26591;43.264;26.940;2023-06-14T01:07:29;98622.81;;;18.91;66.26
40872;BME280;26591;43.264;26.940;2023-06-14T01:12:56;98617.78;;;18.71;67.00
40872;BME280;26591;43.264;26.940;2023-06-14T01:15:24;98617.69;;;18.89;66.85
40872;BME280;26591;43.264;26.940;2023-06-14T01:17:50;98624.84;;;19.19;66.02
40872;BME280;26591;43.264;26.940;2023-06-14T01:20:29;98618.66;;;18.95;65.78
40872;BME280;26591;43.264;26.940;2023-06-14T01:22:54;98620.09;;;18.79;65.96
40872;BME280;26591;43.264;26.940;2023-06-14T01:25:21;98613.19;;;18.29;67.84
40872;BME280;26591;43.264;26.940;2023-06-14T01:28:08;98621.00;;;18.61;66.73
40872;BME280;26591;43.264;26.940;2023-06-14T01:30:39;98622.09;;;18.41;67.56
40872;BME280;26591;43.264;26.940;2023-06-14T01:33:15;98625.56;;;18.72;67.28
40872;BME280;26591;43.264;26.940;2023-06-14T01:35:47;98617.22;;;18.92;66.78
40872;BME280;26591;43.264;26.940;2023-06-14T01:38:14;98614.88;;;18.84;66.04
40872;BME280;26591;43.264;26.940;2023-06-14T01:40:40;98618.66;;;18.65;66.94
40872;BME280;26591;43.264;26.940;2023-06-14T01:43:06;98622.69;;;18.74;66.74
40872;BME280;26591;43.264;26.940;2023-06-14T01:45:33;98619.84;;;18.69;66.11
40872;BME280;26591;43.264;26.940;2023-06-14T01:48:00;98621.19;;;18.90;66.54
40872;BME280;26591;43.264;26.940;2023-06-14T01:50:30;98628.25;;;18.72;66.56
40872;BME280;26591;43.264;26.940;2023-06-14T01:52:56;98631.38;;;18.57;67.15
40872;BME280;26591;43.264;26.940;2023-06-14T01:55:22;98637.19;;;18.54;67.76
40872;BME280;26591;43.264;26.940;2023-06-14T01:57:48;98633.47;;;18.55;67.32
40872;BME280;26591;43.264;26.940;2023-06-14T02:00:14;98633.09;;;18.52;67.49
40872;BME280;26591;43.264;26.940;2023-06-14T02:02:41;98638.03;;;18.67;67.31
40872;BME280;26591;43.264;26.940;2023-06-14T02:05:06;98639.91;;;18.66;67.04
40872;BME280;26591;43.264;26.940;2023-06-14T02:07:33;98629.19;;;18.66;67.00
40872;BME280;26591;43.264;26.940;2023-06-14T02:09:59;98634.25;;;18.98;66.46
40872;BME280;26591;43.264;26.940;2023-06-14T02:12:33;98636.50;;;19.01;65.76
40872;BME280;26591;43.264;26.940;2023-06-14T02:15:02;98639.06;;;19.08;66.24
40872;BME280;26591;43.264;26.940;2023-06-14T02:17:29;98634.66;;;18.71;65.96
40872;BME280;26591;43.264;26.940;2023-06-14T02:19:54;98629.97;;;19.09;66.50
40872;BME280;26591;43.264;26.940;2023-06-14T02:22:22;98637.00;;;19.22;65.50
40872;BME280;26591;43.264;26.940;2023-06-14T02:24:51;98634.44;;;19.15;65.80
40872;BME280;26591;43.264;26.940;2023-06-14T02:27:17;98632.22;;;19.24;65.47
40872;BME280;26591;43.264;26.940;2023-06-14T02:29:42;98635.47;;;19.26;65.22
40872;BME280;26591;43.264;26.940;2023-06-14T02:32:08;98633.97;;;19.18;65.27
40872;BME280;26591;43.264;26.940;2023-06-14T02:34:34;98633.38;;;19.40;64.93
40872;BME280;26591;43.264;26.940;2023-06-14T02:37:00;98637.44;;;19.19;65.28
40872;BME280;26591;43.264;26.940;2023-06-14T02:39:28;98638.91;;;18.91;65.71
40872;BME280;26591;43.264;26.940;2023-06-14T02:41:54;98647.91;;;18.97;65.96
40872;BME280;26591;43.264;26.940;2023-06-14T02:44:19;98644.09;;;19.04;65.82
40872;BME280;26591;43.264;26.940;2023-06-14T02:46:45;98652.13;;;19.28;65.55
40872;BME280;26591;43.264;26.940;2023-06-14T02:49:11;98645.75;;;19.53;64.83
40872;BME280;26591;43.264;26.940;2023-06-14T02:51:37;98643.25;;;19.87;64.17
40872;BME280;26591;43.264;26.940;2023-06-14T02:54:02;98648.16;;;20.31;63.12
40872;BME280;26591;43.264;26.940;2023-06-14T02:56:29;98651.72;;;20.78;62.11
40872;BME280;26591;43.264;26.940;2023-06-14T02:58:54;98655.09;;;21.19;60.47
40872;BME280;26591;43.264;26.940;2023-06-14T03:01:20;98657.03;;;21.24;59.96
40872;BME280;26591;43.264;26.940;2023-06-14T03:03:47;98661.34;;;21.59;58.84
40872;BME280;26591;43.264;26.940;2023-06-14T03:06:12;98668.78;;;21.91;58.33
40872;BME280;26591;43.264;26.940;2023-06-14T03:08:40;98673.03;;;22.31;57.37
40872;BME280;26591;43.264;26.940;2023-06-14T03:11:07;98674.88;;;22.48;56.39
40872;BME280;26591;43.264;26.940;2023-06-14T03:13:34;98682.72;;;22.77;55.68
40872;BME280;26591;43.264;26.940;2023-06-14T03:16:00;98682.13;;;23.02;54.82
40872;BME280;26591;43.264;26.940;2023-06-14T03:18:29;98691.06;;;23.35;54.82
40872;BME280;26591;43.264;26.940;2023-06-14T03:20:56;98688.75;;;23.54;54.65
40872;BME280;26591;43.264;26.940;2023-06-14T03:23:24;98693.50;;;23.80;52.86
40872;BME280;26591;43.264;26.940;2023-06-14T03:25:50;98694.56;;;23.73;53.09
40872;BME280;26591;43.264;26.940;2023-06-14T03:28:16;98696.59;;;23.99;51.83
40872;BME280;26591;43.264;26.940;2023-06-14T03:30:42;98696.06;;;24.02;51.84
40872;BME280;26591;43.264;26.940;2023-06-14T03:33:07;98691.00;;;24.21;51.40
40872;BME280;26591;43.264;26.940;2023-06-14T03:35:33;98688.06;;;24.28;51.62
40872;BME280;26591;43.264;26.940;2023-06-14T03:37:59;98683.03;;;24.62;50.15
40872;BME280;26591;43.264;26.940;2023-06-14T03:40:24;98695.50;;;24.68;50.55
40872;BME280;26591;43.264;26.940;2023-06-14T03:42:54;98687.16;;;25.06;49.26
40872;BME280;26591;43.264;26.940;2023-06-14T03:45:20;98692.59;;;25.37;49.68
40872;BME280;26591;43.264;26.940;2023-06-14T03:47:45;98689.31;;;25.61;48.55
40872;BME280;26591;43.264;26.940;2023-06-14T03:50:11;98686.47;;;26.08;47.22
40872;BME280;26591;43.264;26.940;2023-06-14T03:52:37;98690.94;;;26.43;46.62
40872;BME280;26591;43.264;26.940;2023-06-14T03:55:03;98686.84;;;26.51;45.96
40872;BME280;26591;43.264;26.940;2023-06-14T03:57:29;98683.59;;;26.49;45.93
40872;BME280;26591;43.264;26.940;2023-06-14T03:59:55;98688.72;;;27.01;44.89
40872;BME280;26591;43.264;26.940;2023-06-14T04:02:20;98683.31;;;26.95;45.43
40872;BME280;26591;43.264;26.940;2023-06-14T04:04:46;98692.84;;;27.27;44.49
40872;BME280;26591;43.264;26.940;2023-06-14T04:07:15;98694.22;;;27.25;44.58
40872;BME280;26591;43.264;26.940;2023-06-14T04:09:41;98695.53;;;27.33;43.82
40872;BME280;26591;43.264;26.940;2023-06-14T04:12:07;98693.34;;;27.35;43.76
40872;BME280;26591;43.264;26.940;2023-06-14T04:14:37;98693.25;;;27.45;44.07
40872;BME280;26591;43.264;26.940;2023-06-14T04:17:02;98691.94;;;27.67;43.67
40872;BME280;26591;43.264;26.940;2023-06-14T04:19:28;98695.94;;;27.99;42.63
40872;BME280;26591;43.264;26.940;2023-06-14T04:21:53;98691.47;;;28.13;42.58
40872;BME280;26591;43.264;26.940;2023-06-14T04:24:19;98697.38;;;28.40;42.20
40872;BME280;26591;43.264;26.940;2023-06-14T04:26:45;98703.78;;;28.49;41.81
40872;BME280;26591;43.264;26.940;2023-06-14T04:29:15;98701.16;;;28.82;41.19
40872;BME280;26591;43.264;26.940;2023-06-14T04:31:45;98702.63;;;28.55;41.85
40872;BME280;26591;43.264;26.940;2023-06-14T04:34:12;98700.97;;;28.78;41.12
40872;BME280;26591;43.264;26.940;2023-06-14T04:36:44;98696.63;;;28.77;40.63
40872;BME280;26591;43.264;26.940;2023-06-14T04:39:15;98701.31;;;28.72;41.36
40872;BME280;26591;43.264;26.940;2023-06-14T04:41:43;98710.06;;;28.50;41.59
40872;BME280;26591;43.264;26.940;2023-06-14T04:44:08;98706.25;;;28.89;40.81
40872;BME280;26591;43.264;26.940;2023-06-14T04:46:35;98722.00;;;29.44;39.88
40872;BME280;26591;43.264;26.940;2023-06-14T04:49:12;98711.63;;;29.60;39.92
40872;BME280;26591;43.264;26.940;2023-06-14T04:51:40;98723.28;;;29.80;39.00
40872;BME280;26591;43.264;26.940;2023-06-14T04:54:05;98720.47;;;29.85;39.47
40872;BME280;26591;43.264;26.940;2023-06-14T04:56:38;98724.00;;;30.13;38.87
40872;BME280;26591;43.264;26.940;2023-06-14T04:59:03;98721.88;;;30.10;38.99
40872;BME280;26591;43.264;26.940;2023-06-14T05:01:32;98724.81;;;30.00;39.01
40872;BME280;26591;43.264;26.940;2023-06-14T05:03:59;98733.69;;;30.34;38.50
40872;BME280;26591;43.264;26.940;2023-06-14T05:06:24;98730.31;;;30.79;38.00
40872;BME280;26591;43.264;26.940;2023-06-14T05:08:51;98732.81;;;29.96;38.77
40872;BME280;26591;43.264;26.940;2023-06-14T05:11:17;98733.75;;;29.73;39.63
40872;BME280;26591;43.264;26.940;2023-06-14T05:13:42;98738.16;;;29.54;40.49
40872;BME280;26591;43.264;26.940;2023-06-14T05:16:12;98734.44;;;29.97;38.98
40872;BME280;26591;43.264;26.940;2023-06-14T05:18:38;98728.56;;;30.18;39.17
40872;BME280;26591;43.264;26.940;2023-06-14T05:21:05;98728.16;;;30.11;39.40
40872;BME280;26591;43.264;26.940;2023-06-14T05:23:31;98737.66;;;30.27;39.06
40872;BME280;26591;43.264;26.940;2023-06-14T05:25:57;98746.56;;;30.05;39.25
40872;BME280;26591;43.264;26.940;2023-06-14T05:28:23;98749.38;;;30.42;38.73
40872;BME280;26591;43.264;26.940;2023-06-14T05:30:48;98742.66;;;30.48;39.09
40872;BME280;26591;43.264;26.940;2023-06-14T05:33:13;98742.78;;;30.57;38.28
40872;BME280;26591;43.264;26.940;2023-06-14T05:35:41;98746.69;;;30.79;38.61
40872;BME280;26591;43.264;26.940;2023-06-14T05:38:06;98756.75;;;30.55;38.50
40872;BME280;26591;43.264;26.940;2023-06-14T05:40:36;98753.97;;;30.69;38.16
40872;BME280;26591;43.264;26.940;2023-06-14T05:43:01;98752.91;;;30.14;39.81
40872;BME280;26591;43.264;26.940;2023-06-14T05:45:26;98760.19;;;30.05;39.88
40872;BME280;26591;43.264;26.940;2023-06-14T05:47:52;98765.94;;;30.32;39.31
40872;BME280;26591;43.264;26.940;2023-06-14T05:50:20;98764.34;;;30.95;38.89
40872;BME280;26591;43.264;26.940;2023-06-14T05:52:45;98764.03;;;30.97;38.91
40872;BME280;26591;43.264;26.940;2023-06-14T05:55:11;98764.47;;;30.90;38.76
40872;BME280;26591;43.264;26.940;2023-06-14T05:57:39;98765.66;;;30.98;38.34
40872;BME280;26591;43.264;26.940;2023-06-14T06:00:06;98769.75;;;30.72;39.23
40872;BME280;26591;43.264;26.940;2023-06-14T06:02:40;98765.44;;;30.02;39.30
40872;BME280;26591;43.264;26.940;2023-06-14T06:05:06;98771.97;;;29.87;39.47
40872;BME280;26591;43.264;26.940;2023-06-14T06:07:32;98770.91;;;30.16;40.27
40872;BME280;26591;43.264;26.940;2023-06-14T06:09:57;98773.81;;;30.47;39.36
40872;BME280;26591;43.264;26.940;2023-06-14T06:12:23;98772.16;;;29.90;39.48
40872;BME280;26591;43.264;26.940;2023-06-14T06:14:48;98771.94;;;30.20;40.26
40872;BME280;26591;43.264;26.940;2023-06-14T06:17:14;98772.63;;;30.25;39.57
40872;BME280;26591;43.264;26.940;2023-06-14T06:19:39;98772.72;;;30.20;39.78
40872;BME280;26591;43.264;26.940;2023-06-14T06:22:05;98769.81;;;30.58;38.72
40872;BME280;26591;43.264;26.940;2023-06-14T06:24:32;98781.81;;;30.16;40.37
40872;BME280;26591;43.264;26.940;2023-06-14T06:26:57;98775.31;;;30.67;39.28
40872;BME280;26591;43.264;26.940;2023-06-14T06:29:23;98782.38;;;30.82;39.00
40872;BME280;26591;43.264;26.940;2023-06-14T06:31:48;98775.16;;;30.36;39.83
40872;BME280;26591;43.264;26.940;2023-06-14T06:34:14;98772.53;;;30.17;40.01
40872;BME280;26591;43.264;26.940;2023-06-14T06:36:39;98773.28;;;29.75;40.79
40872;BME280;26591;43.264;26.940;2023-06-14T06:39:05;98785.47;;;29.78;40.78
40872;BME280;26591;43.264;26.940;2023-06-14T06:41:38;98786.75;;;29.33;42.00
40872;BME280;26591;43.264;26.940;2023-06-14T06:44:05;98781.19;;;29.58;41.14
40872;BME280;26591;43.264;26.940;2023-06-14T06:46:32;98774.84;;;29.62;40.72
40872;BME280;26591;43.264;26.940;2023-06-14T06:48:58;98778.41;;;29.77;40.17
40872;BME280;26591;43.264;26.940;2023-06-14T06:51:23;98780.72;;;29.36;40.33
40872;BME280;26591;43.264;26.940;2023-06-14T06:53:53;98784.56;;;29.68;40.70
40872;BME280;26591;43.264;26.940;2023-06-14T06:56:19;98787.78;;;28.99;41.00
40872;BME280;26591;43.264;26.940;2023-06-14T06:58:45;98777.78;;;29.33;40.70
40872;BME280;26591;43.264;26.940;2023-06-14T07:01:10;98777.66;;;29.57;40.65
40872;BME280;26591;43.264;26.940;2023-06-14T07:03:37;98775.22;;;29.89;40.53
40872;BME280;26591;43.264;26.940;2023-06-14T07:06:02;98776.16;;;29.65;40.26
40872;BME280;26591;43.264;26.940;2023-06-14T07:08:28;98775.66;;;30.10;39.46
40872;BME280;26591;43.264;26.940;2023-06-14T07:10:53;98778.19;;;30.99;37.82
40872;BME280;26591;43.264;26.940;2023-06-14T07:13:19;98767.56;;;30.19;39.39
40872;BME280;26591;43.264;26.940;2023-06-14T07:15:45;98773.03;;;29.19;40.56
40872;BME280;26591;43.264;26.940;2023-06-14T07:18:11;98777.09;;;28.84;41.26
40872;BME280;26591;43.264;26.940;2023-06-14T07:20:37;98788.03;;;29.03;40.99
40872;BME280;26591;43.264;26.940;2023-06-14T07:23:03;98789.19;;;29.16;41.38
40872;BME280;26591;43.264;26.940;2023-06-14T07:25:29;98784.00;;;29.52;40.36
40872;BME280;26591;43.264;26.940;2023-06-14T07:27:54;98788.94;;;29.83;39.56
40872;BME280;26591;43.264;26.940;2023-06-14T07:30:20;98790.34;;;29.48;40.62
40872;BME280;26591;43.264;26.940;2023-06-14T07:32:46;98797.50;;;28.19;42.40
40872;BME280;26591;43.264;26.940;2023-06-14T07:35:11;98789.16;;;28.05;42.80
40872;BME280;26591;43.264;26.940;2023-06-14T07:37:37;98792.63;;;28.15;42.44
40872;BME280;26591;43.264;26.940;2023-06-14T07:40:03;98788.50;;;28.42;41.57
40872;BME280;26591;43.264;26.940;2023-06-14T07:42:34;98788.03;;;27.81;42.46
40872;BME280;26591;43.264;26.940;2023-06-14T07:45:00;98784.03;;;27.39;43.54
40872;BME280;26591;43.264;26.940;2023-06-14T07:47:26;98785.84;;;27.14;44.05
40872;BME280;26591;43.264;26.940;2023-06-14T07:49:51;98778.81;;;27.42;44.04
40872;BME280;26591;43.264;26.940;2023-06-14T07:52:17;98773.38;;;27.08;43.99
40872;BME280;26591;43.264;26.940;2023-06-14T07:54:42;98779.00;;;27.22;44.58
40872;BME280;26591;43.264;26.940;2023-06-14T07:57:08;98778.25;;;27.51;44.28
40872;BME280;26591;43.264;26.940;2023-06-14T07:59:34;98776.88;;;27.53;43.98
40872;BME280;26591;43.264;26.940;2023-06-14T08:01:59;98777.78;;;26.99;44.47
40872;BME280;26591;43.264;26.940;2023-06-14T08:04:25;98787.81;;;26.43;45.02
40872;BME280;26591;43.264;26.940;2023-06-14T08:06:50;98786.00;;;26.78;45.93
40872;BME280;26591;43.264;26.940;2023-06-14T08:09:16;98782.78;;;27.26;44.02
40872;BME280;26591;43.264;26.940;2023-06-14T08:11:41;98792.91;;;27.84;42.87
40872;BME280;26591;43.264;26.940;2023-06-14T08:14:08;98788.94;;;28.30;41.78
40872;BME280;26591;43.264;26.940;2023-06-14T08:16:33;98793.59;;;28.73;41.30
40872;BME280;26591;43.264;26.940;2023-06-14T08:18:59;98793.59;;;28.25;42.17
40872;BME280;26591;43.264;26.940;2023-06-14T08:21:24;98799.16;;;27.85;42.40
40872;BME280;26591;43.264;26.940;2023-06-14T08:23:52;98798.50;;;27.29;43.75
40872;BME280;26591;43.264;26.940;2023-06-14T08:26:18;98793.31;;;27.33;44.25
40872;BME280;26591;43.264;26.940;2023-06-14T08:28:44;98795.69;;;28.03;42.90
40872;BME280;26591;43.264;26.940;2023-06-14T08:31:09;98798.41;;;27.79;43.50
40872;BME280;26591;43.264;26.940;2023-06-14T08:33:35;98797.41;;;27.65;43.49
40872;BME280;26591;43.264;26.940;2023-06-14T08:36:00;98792.06;;;27.15;44.46
40872;BME280;26591;43.264;26.940;2023-06-14T08:38:26;98792.38;;;27.08;44.43
40872;BME280;26591;43.264;26.940;2023-06-14T08:40:52;98789.63;;;27.87;43.53
40872;BME280;26591;43.264;26.940;2023-06-14T08:43:22;98785.50;;;27.90;43.10
40872;BME280;26591;43.264;26.940;2023-06-14T08:45:48;98784.75;;;27.84;43.51
40872;BME280;26591;43.264;26.940;2023-06-14T08:48:19;98779.03;;;28.15;43.59
40872;BME280;26591;43.264;26.940;2023-06-14T08:50:46;98787.06;;;28.26;42.62
40872;BME280;26591;43.264;26.940;2023-06-14T08:53:14;98774.63;;;28.20;42.87
40872;BME280;26591;43.264;26.940;2023-06-14T08:55:45;98769.28;;;27.50;43.82
40872;BME280;26591;43.264;26.940;2023-06-14T08:58:11;98769.13;;;28.25;42.66
40872;BME280;26591;43.264;26.940;2023-06-14T09:00:40;98763.09;;;28.52;42.07
40872;BME280;26591;43.264;26.940;2023-06-14T09:03:07;98763.56;;;28.11;43.02
40872;BME280;26591;43.264;26.940;2023-06-14T09:05:39;98761.13;;;27.50;43.79
40872;BME280;26591;43.264;26.940;2023-06-14T09:08:05;98767.78;;;27.68;44.25
40872;BME280;26591;43.264;26.940;2023-06-14T09:10:31;98762.13;;;28.19;42.84
40872;BME280;26591;43.264;26.940;2023-06-14T09:13:00;98759.03;;;28.93;41.36
40872;BME280;26591;43.264;26.940;2023-06-14T09:15:25;98761.66;;;28.55;41.83
40872;BME280;26591;43.264;26.940;2023-06-14T09:17:51;98762.13;;;28.62;41.69
40872;BME280;26591;43.264;26.940;2023-06-14T09:20:17;98762.84;;;28.73;41.48
40872;BME280;26591;43.264;26.940;2023-06-14T09:22:46;98762.28;;;28.71;41.43
40872;BME280;26591;43.264;26.940;2023-06-14T09:25:12;98768.53;;;28.28;41.75
40872;BME280;26591;43.264;26.940;2023-06-14T09:27:40;98769.38;;;28.72;41.49
40872;BME280;26591;43.264;26.940;2023-06-14T09:30:09;98766.00;;;29.18;40.30
40872;BME280;26591;43.264;26.940;2023-06-14T09:32:41;98763.94;;;28.91;40.82
40872;BME280;26591;43.264;26.940;2023-06-14T09:35:07;98765.31;;;29.27;40.24
40872;BME280;26591;43.264;26.940;2023-06-14T09:37:33;98759.06;;;29.45;39.83
40872;BME280;26591;43.264;26.940;2023-06-14T09:40:00;98760.13;;;28.73;40.90
40872;BME280;26591;43.264;26.940;2023-06-14T09:42:25;98761.78;;;28.69;40.48
40872;BME280;26591;43.264;26.940;2023-06-14T09:44:54;98764.63;;;28.15;42.16
40872;BME280;26591;43.264;26.940;2023-06-14T09:47:25;98761.66;;;28.55;41.44
40872;BME280;26591;43.264;26.940;2023-06-14T09:49:51;98764.16;;;28.32;41.93
40872;BME280;26591;43.264;26.940;2023-06-14T09:52:20;98762.75;;;28.35;41.76
40872;BME280;26591;43.264;26.940;2023-06-14T09:54:47;98762.03;;;27.99;42.68
40872;BME280;26591;43.264;26.940;2023-06-14T09:57:15;98764.09;;;28.13;41.96
40872;BME280;26591;43.264;26.940;2023-06-14T09:59:45;98754.97;;;27.39;43.45
40872;BME280;26591;43.264;26.940;2023-06-14T10:02:18;98759.00;;;27.07;44.09
40872;BME280;26591;43.264;26.940;2023-06-14T10:04:52;98765.53;;;27.06;44.66
40872;BME280;26591;43.264;26.940;2023-06-14T10:07:19;98767.16;;;27.07;45.04
40872;BME280;26591;43.264;26.940;2023-06-14T10:09:46;98765.41;;;27.22;44.11
40872;BME280;26591;43.264;26.940;2023-06-14T10:12:16;98765.53;;;27.06;44.68
40872;BME280;26591;43.264;26.940;2023-06-14T10:14:49;98764.56;;;27.26;44.37
40872;BME280;26591;43.264;26.940;2023-06-14T10:17:27;98766.69;;;27.35;44.17
40872;BME280;26591;43.264;26.940;2023-06-14T10:22:52;98766.41;;;26.96;44.79
40872;BME280;26591;43.264;26.940;2023-06-14T10:25:28;98764.13;;;27.14;45.00
40872;BME280;26591;43.264;26.940;2023-06-14T10:28:23;98759.13;;;26.87;44.91
40872;BME280;26591;43.264;26.940;2023-06-14T10:31:11;98764.00;;;26.90;45.46
40872;BME280;26591;43.264;26.940;2023-06-14T10:33:48;98763.75;;;26.86;44.19
40872;BME280;26591;43.264;26.940;2023-06-14T10:36:29;98763.91;;;26.50;45.17
40872;BME280;26591;43.264;26.940;2023-06-14T10:39:06;98754.00;;;26.09;46.43
40872;BME280;26591;43.264;26.940;2023-06-14T10:41:54;98765.44;;;26.66;46.54
40872;BME280;26591;43.264;26.940;2023-06-14T10:46:48;98765.38;;;26.87;46.19
40872;BME280;26591;43.264;26.940;2023-06-14T10:49:21;98762.81;;;27.06;45.64
40872;BME280;26591;43.264;26.940;2023-06-14T10:52:02;98759.91;;;27.32;44.86
40872;BME280;26591;43.264;26.940;2023-06-14T10:54:28;98760.16;;;26.96;44.42
40872;BME280;26591;43.264;26.940;2023-06-14T10:56:53;98766.00;;;27.14;44.76
40872;BME280;26591;43.264;26.940;2023-06-14T10:59:20;98767.69;;;27.44;44.88
40872;BME280;26591;43.264;26.940;2023-06-14T11:04:14;98769.63;;;27.04;45.47
40872;BME280;26591;43.264;26.940;2023-06-14T11:06:48;98779.50;;;26.84;46.27
40872;BME280;26591;43.264;26.940;2023-06-14T11:09:29;98779.72;;;26.98;45.75
40872;BME280;26591;43.264;26.940;2023-06-14T11:12:03;98773.44;;;27.03;44.64
40872;BME280;26591;43.264;26.940;2023-06-14T11:14:32;98775.94;;;26.94;44.86
40872;BME280;26591;43.264;26.940;2023-06-14T11:16:58;98775.72;;;27.25;44.90
40872;BME280;26591;43.264;26.940;2023-06-14T11:19:24;98780.13;;;27.55;43.96
40872;BME280;26591;43.264;26.940;2023-06-14T11:21:50;98776.31;;;27.56;44.36
40872;BME280;26591;43.264;26.940;2023-06-14T11:24:16;98772.59;;;27.42;44.20
40872;BME280;26591;43.264;26.940;2023-06-14T11:26:42;98775.06;;;27.38;44.53
40872;BME280;26591;43.264;26.940;2023-06-14T11:29:08;98774.31;;;26.93;46.36
40872;BME280;26591;43.264;26.940;2023-06-14T11:31:43;98777.91;;;26.73;46.14
40872;BME280;26591;43.264;26.940;2023-06-14T11:34:09;98770.06;;;26.66;45.76
40872;BME280;26591;43.264;26.940;2023-06-14T11:36:35;98767.56;;;26.85;46.02
40872;BME280;26591;43.264;26.940;2023-06-14T11:39:03;98770.50;;;26.89;45.95
40872;BME280;26591;43.264;26.940;2023-06-14T11:41:42;98767.00;;;26.88;45.30
40872;BME280;26591;43.264;26.940;2023-06-14T11:44:08;98760.47;;;27.29;44.99
40872;BME280;26591;43.264;26.940;2023-06-14T11:46:35;98761.13;;;27.50;44.71
40872;BME280;26591;43.264;26.940;2023-06-14T11:49:01;98766.34;;;27.47;45.21
40872;BME280;26591;43.264;26.940;2023-06-14T11:51:32;98760.22;;;27.60;44.92
40872;BME280;26591;43.264;26.940;2023-06-14T11:53:58;98763.91;;;27.45;45.01
40872;BME280;26591;43.264;26.940;2023-06-14T11:56:24;98763.72;;;27.66;44.49
40872;BME280;26591;43.264;26.940;2023-06-14T11:58:52;98767.72;;;27.74;44.28
40872;BME280;26591;43.264;26.940;2023-06-14T12:01:19;98751.91;;;27.11;45.35
40872;BME280;26591;43.264;26.940;2023-06-14T12:03:52;98759.94;;;26.87;46.13
40872;BME280;26591;43.264;26.940;2023-06-14T12:06:26;98757.25;;;27.27;45.92
40872;BME280;26591;43.264;26.940;2023-06-14T12:08:58;98761.41;;;27.09;45.50
40872;BME280;26591;43.264;26.940;2023-06-14T12:11:23;98757.56;;;27.20;45.34
40872;BME280;26591;43.264;26.940;2023-06-14T12:13:49;98749.75;;;27.43;45.40
40872;BME280;26591;43.264;26.940;2023-06-14T12:16:15;98751.88;;;27.51;45.32
40872;BME280;26591;43.264;26.940;2023-06-14T12:18:41;98747.22;;;27.86;43.44
40872;BME280;26591;43.264;26.940;2023-06-14T12:21:09;98744.53;;;28.11;43.46
40872;BME280;26591;43.264;26.940;2023-06-14T12:23:46;98750.00;;;28.54;42.75
40872;BME280;26591;43.264;26.940;2023-06-14T12:26:16;98742.25;;;28.18;43.30
40872;BME280;26591;43.264;26.940;2023-06-14T12:28:43;98739.09;;;27.81;43.95
40872;BME280;26591;43.264;26.940;2023-06-14T12:31:10;98739.63;;;28.13;43.21
40872;BME280;26591;43.264;26.940;2023-06-14T12:33:37;98744.97;;;28.18;43.72
40872;BME280;26591;43.264;26.940;2023-06-14T12:36:04;98740.75;;;28.31;43.01
40872;BME280;26591;43.264;26.940;2023-06-14T12:38:30;98737.88;;;28.22;42.76
40872;BME280;26591;43.264;26.940;2023-06-14T12:40:57;98739.50;;;28.23;43.33
40872;BME280;26591;43.264;26.940;2023-06-14T12:43:23;98736.03;;;28.17;42.59
40872;BME280;26591;43.264;26.940;2023-06-14T12:45:48;98738.03;;;28.31;42.64
40872;BME280;26591;43.264;26.940;2023-06-14T12:48:14;98735.25;;;28.36;43.16
40872;BME280;26591;43.264;26.940;2023-06-14T12:50:41;98725.28;;;27.78;43.19
40872;BME280;26591;43.264;26.940;2023-06-14T12:53:06;98728.34;;;27.71;43.59
40872;BME280;26591;43.264;26.940;2023-06-14T12:55:32;98728.03;;;27.72;43.80
40872;BME280;26591;43.264;26.940;2023-06-14T12:57:57;98727.63;;;27.25;44.20
40872;BME280;26591;43.264;26.940;2023-06-14T13:00:23;98712.41;;;26.90;45.54
40872;BME280;26591;43.264;26.940;2023-06-14T13:02:51;98723.03;;;27.26;44.71